sensor_id;sensor_type;location;lat;lon;timestamp;P1;durP1;ratioP1;P2;durP2;ratioP2
38248;SDS011;24045;51.138;17.126;2023-05-10T00:05:45;12.90;;;7.00;;
38248;SDS011;24045;51.138;17.126;2023-05-10T00:20:48;9.80;;;6.40;;
38248;SDS011;24045;51.138;17.126;2023-05-10T00:35:51;10.70;;;6.70;;
38248;SDS011;24045;51.138;17.126;2023-05-10T00:50:54;13.50;;;8.10;;
38248;SDS011;24045;51.138;17.126;2023-05-10T01:36:27;12.00;;;7.60;;
38248;SDS011;24045;51.138;17.126;2023-05-10T01:51:40;12.40;;;7.20;;
38248;SDS011;24045;51.138;17.126;2023-05-10T02:06:46;12.50;;;7.00;;
38248;SDS011;24045;51.138;17.126;2023-05-10T02:21:50;15.50;;;8.50;;
38248;SDS011;24045;51.138;17.126;2023-05-10T02:36:54;13.00;;;7.70;;
38248;SDS011;24045;51.138;17.126;2023-05-10T02:52:00;12.30;;;7.40;;
38248;SDS011;24045;51.138;17.126;2023-05-10T03:07:06;14.20;;;7.50;;
38248;SDS011;24045;51.138;17.126;2023-05-10T03:22:10;12.10;;;7.40;;
38248;SDS011;24045;51.138;17.126;2023-05-10T03:37:17;16.30;;;8.50;;
38248;SDS011;24045;51.138;17.126;2023-05-10T03:52:19;13.20;;;7.10;;
38248;SDS011;24045;51.138;17.126;2023-05-10T04:07:22;11.60;;;7.20;;
38248;SDS011;24045;51.138;17.126;2023-05-10T04:52:30;13.10;;;7.00;;
38248;SDS011;24045;51.138;17.126;2023-05-10T05:07:33;15.40;;;7.20;;
38248;SDS011;24045;51.138;17.126;2023-05-10T05:22:36;14.40;;;7.00;;
38248;SDS011;24045;51.138;17.126;2023-05-10T05:37:40;14.80;;;8.20;;
38248;SDS011;24045;51.138;17.126;2023-05-10T05:52:42;16.70;;;10.20;;
38248;SDS011;24045;51.138;17.126;2023-05-10T06:07:45;12.00;;;6.20;;
38248;SDS011;24045;51.138;17.126;2023-05-10T06:22:48;11.20;;;5.40;;
38248;SDS011;24045;51.138;17.126;2023-05-10T06:37:51;9.80;;;5.80;;
38248;SDS011;24045;51.138;17.126;2023-05-10T06:52:54;9.50;;;4.90;;
38248;SDS011;24045;51.138;17.126;2023-05-10T07:07:58;11.90;;;6.80;;
38248;SDS011;24045;51.138;17.126;2023-05-10T07:23:01;8.40;;;4.60;;
38248;SDS011;24045;51.138;17.126;2023-05-10T07:38:03;8.30;;;4.60;;
38248;SDS011;24045;51.138;17.126;2023-05-10T07:53:06;8.40;;;3.90;;
38248;SDS011;24045;51.138;17.126;2023-05-10T08:08:10;13.50;;;6.60;;
38248;SDS011;24045;51.138;17.126;2023-05-10T08:23:13;8.10;;;4.20;;
38248;SDS011;24045;51.138;17.126;2023-05-10T08:38:16;12.00;;;5.40;;
38248;SDS011;24045;51.138;17.126;2023-05-10T08:53:18;7.20;;;3.20;;
38248;SDS011;24045;51.138;17.126;2023-05-10T09:08:25;6.60;;;3.20;;
38248;SDS011;24045;51.138;17.126;2023-05-10T09:23:28;6.30;;;3.40;;
38248;SDS011;24045;51.138;17.126;2023-05-10T09:38:44;7.20;;;3.30;;
38248;SDS011;24045;51.138;17.126;2023-05-10T09:54:10;9.60;;;3.20;;
38248;SDS011;24045;51.138;17.126;2023-05-10T10:09:14;6.80;;;2.90;;
38248;SDS011;24045;51.138;17.126;2023-05-10T10:24:17;6.20;;;3.00;;
38248;SDS011;24045;51.138;17.126;2023-05-10T10:39:20;4.50;;;2.90;;
38248;SDS011;24045;51.138;17.126;2023-05-10T10:54:27;5.90;;;2.90;;
38248;SDS011;24045;51.138;17.126;2023-05-10T11:09:30;9.10;;;3.30;;
38248;SDS011;24045;51.138;17.126;2023-05-10T11:24:55;6.60;;;3.10;;
38248;SDS011;24045;51.138;17.126;2023-05-10T11:39:59;8.20;;;2.70;;
38248;SDS011;24045;51.138;17.126;2023-05-10T11:55:02;6.40;;;3.30;;
38248;SDS011;24045;51.138;17.126;2023-05-10T12:10:10;6.70;;;3.00;;
38248;SDS011;24045;51.138;17.126;2023-05-10T12:25:21;7.30;;;2.60;;
38248;SDS011;24045;51.138;17.126;2023-05-10T12:40:27;5.10;;;2.90;;
38248;SDS011;24045;51.138;17.126;2023-05-10T12:55:30;5.20;;;2.60;;
38248;SDS011;24045;51.138;17.126;2023-05-10T13:10:33;7.70;;;3.20;;
38248;SDS011;24045;51.138;17.126;2023-05-10T13:25:35;4.10;;;2.20;;
38248;SDS011;24045;51.138;17.126;2023-05-10T13:40:38;7.30;;;2.00;;
38248;SDS011;24045;51.138;17.126;2023-05-10T13:55:42;5.30;;;2.10;;
38248;SDS011;24045;51.138;17.126;2023-05-10T14:10:44;3.40;;;2.00;;
38248;SDS011;24045;51.138;17.126;2023-05-10T14:25:47;7.30;;;2.90;;
38248;SDS011;24045;51.138;17.126;2023-05-10T14:40:50;5.00;;;2.20;;
38248;SDS011;24045;51.138;17.126;2023-05-10T14:55:54;5.40;;;2.10;;
38248;SDS011;24045;51.138;17.126;2023-05-10T15:10:58;5.20;;;2.40;;
38248;SDS011;24045;51.138;17.126;2023-05-10T15:26:01;5.50;;;2.50;;
38248;SDS011;24045;51.138;17.126;2023-05-10T15:41:05;4.80;;;2.60;;
38248;SDS011;24045;51.138;17.126;2023-05-10T15:56:09;5.60;;;2.70;;
38248;SDS011;24045;51.138;17.126;2023-05-10T16:11:12;5.30;;;2.30;;
38248;SDS011;24045;51.138;17.126;2023-05-10T16:26:19;8.20;;;3.60;;
38248;SDS011;24045;51.138;17.126;2023-05-10T16:41:24;6.90;;;3.40;;
38248;SDS011;24045;51.138;17.126;2023-05-10T16:56:30;8.80;;;3.90;;
38248;SDS011;24045;51.138;17.126;2023-05-10T17:11:33;10.20;;;5.80;;
38248;SDS011;24045;51.138;17.126;2023-05-10T17:26:36;12.10;;;4.70;;
38248;SDS011;24045;51.138;17.126;2023-05-10T17:41:40;14.50;;;7.50;;
38248;SDS011;24045;51.138;17.126;2023-05-10T17:56:43;9.60;;;5.40;;
38248;SDS011;24045;51.138;17.126;2023-05-10T18:11:47;9.70;;;5.50;;
38248;SDS011;24045;51.138;17.126;2023-05-10T18:26:50;8.30;;;4.30;;
38248;SDS011;24045;51.138;17.126;2023-05-10T18:41:53;13.30;;;6.10;;
38248;SDS011;24045;51.138;17.126;2023-05-10T18:56:56;18.00;;;6.00;;
38248;SDS011;24045;51.138;17.126;2023-05-10T19:12:00;10.40;;;6.20;;
38248;SDS011;24045;51.138;17.126;2023-05-10T19:27:03;12.10;;;8.30;;
38248;SDS011;24045;51.138;17.126;2023-05-10T19:42:06;12.60;;;7.60;;
38248;SDS011;24045;51.138;17.126;2023-05-10T19:57:09;12.30;;;7.30;;
38248;SDS011;24045;51.138;17.126;2023-05-10T20:12:14;14.80;;;8.50;;
38248;SDS011;24045;51.138;17.126;2023-05-10T20:27:17;12.10;;;7.00;;
38248;SDS011;24045;51.138;17.126;2023-05-10T20:42:22;11.00;;;7.00;;
38248;SDS011;24045;51.138;17.126;2023-05-10T20:57:25;13.30;;;8.10;;
38248;SDS011;24045;51.138;17.126;2023-05-10T21:27:31;11.40;;;6.70;;
38248;SDS011;24045;51.138;17.126;2023-05-10T21:42:33;11.70;;;6.00;;
38248;SDS011;24045;51.138;17.126;2023-05-10T22:42:44;11.00;;;6.60;;
38248;SDS011;24045;51.138;17.126;2023-05-10T23:12:49;9.20;;;5.50;;
38248;SDS011;24045;51.138;17.126;2023-05-10T23:27:52;10.90;;;6.90;;
38248;SDS011;24045;51.138;17.126;2023-05-10T23:42:55;11.30;;;6.50;;
38248;SDS011;24045;51.138;17.126;2023-05-10T23:57:58;13.10;;;6.70;;
